Date,TemperatureHighF,TemperatureAvgF,TemperatureLowF,DewpointHighF,DewpointAvgF,DewpointLowF,HumidityHigh,HumidityAvg,HumidityLow,PressureMaxIn,PressureMinIn,WindSpeedMaxMPH,WindSpeedAvgMPH,GustSpeedMaxMPH,PrecipitationSumIn
2009-10-1,74.0,62.3,53.1,36.1,33.1,29.1,49,34,23,30.20,29.96,10,1,11,0.00
2009-10-2,78.5,67.7,59.0,42.8,37.4,31.2,45,33,25,29.97,29.74,10,0,10,0.00
2009-10-3,66.0,54.0,45.3,43.9,38.2,33.6,68,56,39,29.82,29.70,13,0,13,0.00
2009-10-4,60.3,48.3,41.0,41.7,36.4,32.0,84,65,42,29.97,29.70,12,0,12,0.00
2009-10-5,63.7,52.5,43.3,39.8,35.5,31.8,83,54,32,30.13,29.94,14,0,14,0.00
2009-10-6,69.4,57.8,49.5,37.5,34.2,30.2,50,41,29,30.06,29.88,9,0,10,0.00
2009-10-7,74.1,62.1,51.3,42.7,36.7,31.7,70,40,26,29.98,29.84,10,0,10,0.00
2009-10-8,69.5,53.7,42.0,49.5,43.6,33.5,92,71,43,30.19,29.94,7,0,7,0.00
2009-10-9,62.4,49.1,44.3,48.2,42.4,36.2,88,78,60,30.22,30.10,3,0,3,0.00
2009-10-10,69.6,54.7,43.2,51.0,46.2,40.3,91,75,51,30.01,29.77,1,0,5,0.00
2009-10-11,51.9,47.6,42.4,46.5,44.3,40.0,93,88,81,30.02,29.80,9,1,13,0.00
2009-10-12,55.7,51.3,47.9,49.2,46.7,44.4,92,84,71,29.91,29.69,18,1,18,0.05
2009-10-13,57.4,54.0,51.4,55.7,52.1,48.7,94,93,90,29.74,29.41,34,5,34,10.52
2009-10-14,60.0,57.4,55.1,58.6,55.8,53.7,95,95,94,30.14,29.72,17,1,17,0.44
2009-10-15,73.4,62.6,55.7,63.5,58.9,54.3,95,88,69,30.20,30.06,9,0,9,0.00
2009-10-16,73.5,64.5,57.9,61.2,58.7,54.6,94,82,63,30.11,29.91,7,0,7,0.00
2009-10-17,77.5,66.6,62.4,61.3,57.0,51.7,84,71,53,29.99,29.83,10,0,10,0.00
2009-10-18,69.8,59.6,48.3,57.7,51.5,45.4,90,75,51,30.01,29.82,5,0,5,0.00
2009-10-19,54.1,50.9,47.4,52.4,48.6,44.6,94,92,89,30.13,29.99,9,0,9,0.26
2009-10-20,61.4,53.7,49.6,52.0,49.4,47.4,94,86,64,30.13,30.05,7,0,9,0.00
2009-10-21,68.0,56.1,48.6,55.3,51.0,45.9,94,84,61,30.14,29.99,4,0,5,0.01
2009-10-22,65.6,56.7,51.2,56.6,52.3,48.5,94,86,69,30.13,29.97,10,0,10,0.00
2009-10-23,74.5,64.4,56.8,51.7,49.5,45.3,81,60,40,30.12,29.95,10,0,10,0.00
2009-10-24,69.4,62.6,56.9,57.7,52.6,48.2,82,70,56,30.04,29.89,10,0,10,0.00
2009-10-25,72.4,63.6,56.3,51.1,44.4,39.0,75,52,33,30.07,29.92,11,1,11,0.00
2009-10-26,76.0,64.8,53.5,54.5,44.8,36.9,87,51,33,30.08,29.92,6,0,6,0.00
2009-10-27,56.2,51.3,45.9,48.4,35.2,29.0,87,55,36,30.13,29.95,19,2,19,0.00
2009-10-28,54.1,48.3,43.6,32.4,28.9,24.3,58,48,33,30.21,30.06,22,2,24,0.00
2009-10-29,59.6,51.8,44.6,36.8,31.9,29.0,61,47,33,30.27,30.16,9,1,11,0.00
2009-10-30,66.8,58.6,53.1,48.3,43.9,35.7,72,58,49,30.26,30.15,7,0,7,0.00
2009-10-31,65.8,60.0,56.4,53.3,49.4,47.0,75,68,61,30.23,30.08,6,0,6,0.00